Time;durP1;ratioP1;P1;durP2;ratioP2;P2;SDS_P1;SDS_P2;PMS_P1;PMS_P2;Temp;Humidity;BMP_temperature;BMP_pressure;BME280_temperature;BME280_humidity;BME280_pressure;Samples;Min_cycle;Max_cycle;Signal;HPM_P1;HPM_P2
2023/01/10 07:06:18;;;;;;;14.05;5.78;;;;;;;4.60;100.00;101513.41;5300094;27;20408;-70
2023/01/10 07:08:49;;;;;;;20.45;5.60;;;;;;;4.62;100.00;101531.34;5293604;28;20752;-70
2023/01/10 07:11:21;;;;;;;24.95;6.40;;;;;;;4.63;100.00;101534.91;5279727;28;20031;-70
2023/01/10 07:13:52;;;;;;;25.52;5.47;;;;;;;4.65;100.00;101538.28;5278942;28;20021;-70
2023/01/10 07:16:25;;;;;;;17.40;7.53;;;;;;;4.64;100.00;101542.09;5294623;28;20451;-70
2023/01/10 07:18:57;;;;;;;18.92;5.68;;;;;;;4.65;100.00;101547.34;5290699;28;20128;-70
2023/01/10 07:21:28;;;;;;;16.42;6.80;;;;;;;4.70;100.00;101541.16;5279066;28;20100;-70
2023/01/10 07:23:59;;;;;;;15.88;5.15;;;;;;;4.69;100.00;101548.56;5279607;28;20025;-70
2023/01/10 07:26:31;;;;;;;15.38;7.13;;;;;;;4.70;100.00;101552.16;5283450;28;20430;-70
2023/01/10 07:29:02;;;;;;;17.75;5.53;;;;;;;4.70;100.00;101558.47;5278643;28;20020;-70
2023/01/10 07:31:34;;;;;;;18.60;6.28;;;;;;;4.64;100.00;101559.41;5279500;28;20120;-69
2023/01/10 07:34:05;;;;;;;18.80;5.43;;;;;;;4.74;100.00;101565.19;5278600;28;20025;-70
2023/01/10 07:36:37;;;;;;;20.30;6.40;;;;;;;4.71;100.00;101573.06;5277378;28;20032;-71
2023/01/10 07:39:08;;;;;;;19.52;5.18;;;;;;;4.70;100.00;101583.19;5277304;28;20375;-70
2023/01/10 07:41:40;;;;;;;19.38;5.80;;;;;;;4.69;100.00;101587.03;5294245;28;20027;-69
2023/01/10 07:44:11;;;;;;;23.02;6.22;;;;;;;4.68;100.00;101576.25;5295030;28;20037;-70
2023/01/10 07:46:42;;;;;;;16.58;5.57;;;;;;;4.66;100.00;101592.16;5278508;28;20476;-70
2023/01/10 07:49:14;;;;;;;17.75;6.20;;;;;;;4.69;100.00;101595.28;5277160;28;20171;-71
2023/01/10 07:51:45;;;;;;;19.85;6.43;;;;;;;4.69;100.00;101588.94;5278119;28;20490;-70
2023/01/10 07:54:16;;;;;;;17.00;5.00;;;;;;;4.66;100.00;101595.75;5270963;28;20033;-70
2023/01/10 07:56:49;;;;;;;16.98;7.40;;;;;;;4.68;100.00;101599.13;5278165;28;20108;-70
2023/01/10 07:59:20;;;;;;;23.02;6.97;;;;;;;4.70;100.00;101596.94;5279058;28;20040;-68
2023/01/10 08:01:52;;;;;;;18.30;5.93;;;;;;;4.69;100.00;101597.19;5278570;28;20016;-68
2023/01/10 08:04:24;;;;;;;15.38;5.35;;;;;;;4.72;100.00;101593.97;5283144;28;20051;-67
2023/01/10 08:06:55;;;;;;;16.85;5.22;;;;;;;4.73;100.00;101596.50;5297644;28;20379;-68
2023/01/10 08:09:26;;;;;;;20.92;5.22;;;;;;;4.67;100.00;101594.66;5296929;28;20366;-71
2023/01/10 08:12:01;;;;;;;16.73;5.90;;;;;;;4.66;100.00;101595.75;5299913;28;20158;-73
2023/01/10 08:14:32;;;;;;;19.52;4.85;;;;;;;4.67;100.00;101591.91;5299804;28;20031;-70
2023/01/10 08:17:03;;;;;;;19.85;6.70;;;;;;;4.67;100.00;101597.41;5288441;28;20036;-70
2023/01/10 08:19:34;;;;;;;20.67;5.75;;;;;;;4.69;100.00;101591.69;5274012;28;20143;-71
2023/01/10 08:22:06;;;;;;;19.63;5.97;;;;;;;4.64;100.00;101589.66;5284961;28;20029;-72
2023/01/10 08:24:37;;;;;;;16.13;4.82;;;;;;;4.58;100.00;101594.16;5280561;28;20040;-71
2023/01/10 08:27:09;;;;;;;15.32;4.88;;;;;;;4.64;100.00;101597.06;5273048;28;20025;-72
2023/01/10 08:29:41;;;;;;;23.05;6.47;;;;;;;4.63;100.00;101590.72;5268257;28;20028;-70
2023/01/10 08:32:12;;;;;;;22.98;5.55;;;;;;;4.69;100.00;101606.28;5264046;28;20467;-70
2023/01/10 08:34:43;;;;;;;16.95;5.50;;;;;;;4.73;100.00;101602.00;5267747;28;20028;-70
2023/01/10 08:37:15;;;;;;;17.98;6.22;;;;;;;4.77;100.00;101603.19;5292143;28;20463;-70
2023/01/10 08:39:46;;;;;;;17.27;5.72;;;;;;;4.91;100.00;101609.38;5299673;28;20024;-72
2023/01/10 08:42:17;;;;;;;20.05;6.25;;;;;;;4.86;100.00;101595.47;5284772;28;20029;-71
2023/01/10 08:44:48;;;;;;;22.67;6.18;;;;;;;4.85;100.00;101598.44;5269013;28;20115;-71
2023/01/10 08:47:20;;;;;;;19.13;5.95;;;;;;;4.84;100.00;101589.38;5285294;28;20016;-72
2023/01/10 08:49:51;;;;;;;17.83;5.30;;;;;;;4.89;100.00;101592.25;5283561;28;20066;-72
2023/01/10 08:52:22;;;;;;;17.52;5.25;;;;;;;4.91;100.00;101589.25;5300099;28;20107;-72
2023/01/10 08:54:54;;;;;;;17.85;6.28;;;;;;;4.92;100.00;101599.19;5302330;28;20033;-74
2023/01/10 08:57:25;;;;;;;17.92;6.05;;;;;;;4.97;100.00;101582.84;5284163;28;20132;-72
2023/01/10 08:59:56;;;;;;;17.50;6.05;;;;;;;4.93;100.00;101596.19;5283574;28;20498;-71
2023/01/10 09:02:28;;;;;;;13.52;5.18;;;;;;;4.99;100.00;101588.94;5282685;28;20129;-73
2023/01/10 09:04:59;;;;;;;19.85;4.93;;;;;;;4.98;100.00;101576.25;5272810;28;20487;-73
2023/01/10 09:07:30;;;;;;;18.10;5.07;;;;;;;5.01;100.00;101590.41;5264042;28;20415;-74
2023/01/10 09:10:03;;;;;;;16.15;4.80;;;;;;;5.06;100.00;101584.16;5272577;28;20352;-73
2023/01/10 09:15:35;;;;;;;13.90;4.93;;;;;;;5.17;100.00;101577.88;5272927;28;20032;-73
2023/01/10 09:18:07;;;;;;;18.67;5.50;;;;;;;5.11;100.00;101584.28;5275701;28;20029;-73
2023/01/10 09:20:40;;;;;;;16.60;4.75;;;;;;;5.19;100.00;101572.97;5275600;28;20058;-73
2023/01/10 09:23:18;;;;;;;21.02;4.88;;;;;;;5.24;100.00;101586.03;5274539;28;20381;-72
2023/01/10 09:25:52;;;;;;;11.55;5.07;;;;;;;5.22;100.00;101577.16;5277729;28;20032;-73
2023/01/10 09:28:24;;;;;;;18.95;5.55;;;;;;;5.19;100.00;101577.63;5282375;28;20024;-74
2023/01/10 09:30:55;;;;;;;11.98;4.03;;;;;;;5.24;100.00;101575.03;5272749;28;20027;-73
2023/01/10 09:33:26;;;;;;;17.15;5.75;;;;;;;5.23;100.00;101574.16;5263446;28;20515;-73
2023/01/10 09:35:58;;;;;;;20.75;6.97;;;;;;;5.23;100.00;101574.16;5277977;28;20017;-73
2023/01/10 09:38:29;;;;;;;16.50;4.78;;;;;;;5.27;100.00;101576.47;5283724;28;20024;-73
2023/01/10 09:41:14;;;;;;;17.67;5.57;;;;;;;5.31;100.00;101577.66;5282963;28;20111;-72
2023/01/10 09:43:58;;;;;;;15.63;4.75;;;;;;;5.31;100.00;101574.91;5283395;28;20079;-72
2023/01/10 09:46:47;;;;;;;24.30;7.07;;;;;;;5.40;100.00;101566.06;5283945;28;20048;-72
2023/01/10 09:49:36;;;;;;;18.65;4.97;;;;;;;5.38;100.00;101565.47;5273510;28;20059;-73
2023/01/10 09:52:35;;;;;;;22.30;6.55;;;;;;;5.44;100.00;101581.03;5270512;28;20110;-73
2023/01/10 09:55:28;;;;;;;13.95;4.60;;;;;;;5.49;100.00;101572.06;5250642;28;20056;-71
2023/01/10 09:58:04;;;;;;;14.15;5.22;;;;;;;5.44;100.00;101560.91;5262913;28;20062;-69
2023/01/10 10:00:41;;;;;;;18.13;4.97;;;;;;;5.50;100.00;101562.75;5262735;28;20082;-71
2023/01/10 10:03:23;;;;;;;15.68;4.95;;;;;;;5.54;100.00;101566.66;5262148;28;20119;-72
2023/01/10 10:05:55;;;;;;;18.88;4.88;;;;;;;5.55;100.00;101564.78;5280833;28;20044;-73
2023/01/10 10:08:27;;;;;;;21.38;4.82;;;;;;;5.66;100.00;101573.03;5279339;28;20025;-72
2023/01/10 10:11:21;;;;;;;15.05;5.60;;;;;;;5.71;100.00;101576.97;5261491;28;20044;-72
2023/01/10 10:14:07;;;;;;;13.95;5.85;;;;;;;5.68;100.00;101569.22;5267826;28;20028;-73
2023/01/10 10:17:15;;;;;;;19.20;5.20;;;;;;;5.76;100.00;101560.59;5268683;28;20052;-72
2023/01/10 10:19:54;;;;;;;14.45;6.10;;;;;;;5.73;100.00;101548.16;5270159;28;20387;-72
2023/01/10 10:22:34;;;;;;;15.95;5.50;;;;;;;5.79;100.00;101547.16;5282291;28;20040;-73
2023/01/10 10:25:37;;;;;;;18.80;5.43;;;;;;;5.86;100.00;101547.06;5281476;28;20029;-71
2023/01/10 10:28:30;;;;;;;20.05;5.63;;;;;;;5.87;100.00;101540.47;5277677;28;20185;-73
2023/01/10 10:31:20;;;;;;;15.85;6.10;;;;;;;5.90;100.00;101556.47;5279786;28;20020;-72
2023/01/10 10:34:36;;;;;;;14.88;5.00;;;;;;;5.98;100.00;101536.91;5262137;28;20029;-73
2023/01/10 10:37:33;;;;;;;20.30;7.07;;;;;;;5.99;100.00;101543.22;5270459;28;20684;-73
2023/01/10 10:40:09;;;;;;;11.38;4.28;;;;;;;6.02;99.85;101528.97;5282162;28;20044;-74
2023/01/10 10:42:47;;;;;;;16.88;4.93;;;;;;;6.05;99.79;101526.56;5277531;28;20028;-72
2023/01/10 10:45:34;;;;;;;15.93;4.60;;;;;;;6.05;100.00;101511.97;5260437;28;20391;-72
2023/01/10 10:48:18;;;;;;;12.93;4.47;;;;;;;6.12;100.00;101514.59;5275793;28;20032;-72
2023/01/10 10:50:49;;;;;;;14.07;4.65;;;;;;;6.14;99.40;101513.28;5282556;28;20095;-72
2023/01/10 10:53:20;;;;;;;19.92;8.50;;;;;;;6.15;99.39;101503.09;5281363;28;20067;-72
2023/01/10 10:55:52;;;;;;;18.67;7.60;;;;;;;6.21;100.00;101507.59;5282663;28;20020;-71
2023/01/10 10:58:24;;;;;;;15.38;4.45;;;;;;;6.24;99.76;101501.63;5269398;28;20134;-69
2023/01/10 11:00:57;;;;;;;17.55;5.30;;;;;;;6.26;99.85;101504.94;5261276;28;20048;-70
2023/01/10 11:03:45;;;;;;;14.95;4.85;;;;;;;6.33;100.00;101491.88;5261938;28;20515;-70
2023/01/10 11:06:18;;;;;;;16.00;5.15;;;;;;;6.28;99.38;101483.50;5264704;28;20076;-71
2023/01/10 11:08:54;;;;;;;18.05;9.80;;;;;;;6.31;99.46;101480.25;5280905;28;20028;-72
2023/01/10 11:11:43;;;;;;;20.23;5.90;;;;;;;6.37;100.00;101470.19;5282405;28;20052;-73
2023/01/10 11:14:14;;;;;;;10.70;4.20;;;;;;;6.41;99.07;101474.13;5281702;28;20028;-73
2023/01/10 11:16:45;;;;;;;19.67;4.25;;;;;;;6.34;99.22;101474.28;5276548;28;20074;-74
2023/01/10 11:19:25;;;;;;;15.63;5.93;;;;;;;6.39;98.93;101471.63;5260784;28;20029;-71
2023/01/10 11:22:02;;;;;;;14.18;5.43;;;;;;;6.41;98.69;101469.44;5269194;28;20024;-71
2023/01/10 11:24:38;;;;;;;18.02;6.32;;;;;;;6.45;99.13;101464.28;5282237;28;20032;-73
2023/01/10 11:27:20;;;;;;;18.05;7.30;;;;;;;6.46;98.71;101466.78;5280900;28;20418;-73
2023/01/10 11:29:56;;;;;;;21.77;6.47;;;;;;;6.46;99.28;101472.28;5281463;28;20340;-71
2023/01/10 11:32:33;;;;;;;25.73;6.00;;;;;;;6.50;99.42;101465.22;5282442;28;20021;-74
2023/01/10 11:35:35;;;;;;;16.42;6.70;;;;;;;6.55;99.27;101472.75;5265712;28;20033;-74
2023/01/10 11:38:13;;;;;;;17.90;6.30;;;;;;;6.56;98.54;101468.06;5279107;28;20096;-73
2023/01/10 11:40:54;;;;;;;17.92;5.97;;;;;;;6.60;98.84;101469.25;5281824;28;20051;-73
2023/01/10 11:43:32;;;;;;;20.38;7.53;;;;;;;6.60;98.96;101463.72;5286200;28;20032;-72
2023/01/10 11:46:16;;;;;;;16.42;5.70;;;;;;;6.65;98.57;101463.81;5290741;28;20035;-70
2023/01/10 11:48:58;;;;;;;16.20;5.95;;;;;;;6.62;98.76;101459.66;5289792;28;20112;-72
2023/01/10 11:51:36;;;;;;;17.35;5.55;;;;;;;6.65;98.63;101448.13;5280973;28;20028;-73
2023/01/10 11:54:15;;;;;;;24.67;6.85;;;;;;;6.66;98.72;101446.19;5276222;28;20028;-73
2023/01/10 11:56:55;;;;;;;19.13;7.72;;;;;;;6.70;98.47;101450.97;5281887;28;20016;-74
2023/01/10 11:59:28;;;;;;;14.20;6.85;;;;;;;6.65;98.44;101444.53;5296868;28;20138;-72
2023/01/10 12:02:21;;;;;;;15.63;5.45;;;;;;;6.71;98.24;101446.28;5303985;28;20024;-72
2023/01/10 12:04:55;;;;;;;16.42;5.80;;;;;;;6.71;98.12;101449.03;5286506;28;20040;-78
2023/01/10 12:07:27;;;;;;;26.02;5.28;;;;;;;6.67;97.59;101439.59;5290724;28;20039;-71
2023/01/10 12:10:02;;;;;;;13.70;5.28;;;;;;;6.69;98.13;101429.16;5264298;28;20029;-70
2023/01/10 12:12:34;;;;;;;23.35;7.25;;;;;;;6.67;98.20;101429.41;5306049;28;20028;-71
2023/01/10 12:15:41;;;;;;;14.73;6.05;;;;;;;6.73;97.94;101422.06;5306718;28;20455;-69
2023/01/10 12:18:13;;;;;;;;;;;;;;;6.76;98.69;101418.81;5162102;28;20031;-73
2023/01/10 12:20:56;;;;;;;16.95;5.35;;;;;;;6.79;98.24;101414.69;5247730;28;20007;-71
2023/01/10 12:23:29;;;;;;;20.17;7.03;;;;;;;6.74;97.43;101412.69;5279692;28;20024;-71
2023/01/10 12:26:01;;;;;;;15.65;6.72;;;;;;;6.89;99.85;101407.44;5284233;28;20029;-71
2023/01/10 12:28:35;;;;;;;12.80;5.72;;;;;;;6.86;97.27;101402.44;5284901;28;20115;-72
2023/01/10 12:31:12;;;;;;;23.83;6.07;;;;;;;6.86;96.38;101401.59;5284091;28;20379;-72
2023/01/10 12:33:57;;;;;;;17.92;5.65;;;;;;;6.78;96.54;101393.75;5285010;28;20111;-71
2023/01/10 12:36:32;;;;;;;17.88;5.70;;;;;;;6.79;96.86;101387.97;5284292;28;20189;-71
2023/01/10 12:39:25;;;;;;;15.10;4.23;;;;;;;6.84;97.23;101387.22;5285191;28;20035;-72
2023/01/10 12:45:10;;;;;;;20.05;6.85;;;;;;;6.84;96.89;101366.00;5263680;28;20045;-72
2023/01/10 12:47:53;;;;;;;;;;;;;;;6.92;97.59;101361.97;5264422;28;20037;-71
2023/01/10 12:50:31;;;;;;;11.40;4.25;;;;;;;6.93;96.38;101358.97;5263978;28;19919;-71
2023/01/10 12:53:21;;;;;;;21.90;5.80;;;;;;;6.92;96.57;101357.28;5263914;28;20041;-71
2023/01/10 12:55:57;;;;;;;18.27;4.95;;;;;;;6.88;96.16;101358.91;5282548;28;20029;-73
2023/01/10 12:58:41;;;;;;;;;;;;;;;7.01;97.28;101367.91;5283310;28;20170;-73
2023/01/10 13:01:16;;;;;;;17.30;5.45;;;;;;;6.94;95.38;101357.88;5286135;28;20351;-79
2023/01/10 13:03:54;;;;;;;16.90;4.68;;;;;;;6.93;95.46;101350.69;5287851;28;20054;-77
2023/01/10 13:06:31;;;;;;;17.38;5.85;;;;;;;6.93;95.35;101342.44;5294544;28;20041;-80
2023/01/10 13:09:07;;;;;;;12.90;5.43;;;;;;;6.96;95.13;101336.41;5286321;28;20030;-78
2023/01/10 13:11:47;;;;;;;;;;;;;;;7.03;95.94;101332.63;5283797;28;20071;-70
2023/01/10 13:14:25;;;;;;;19.27;6.15;;;;;;;6.99;94.90;101315.75;5283614;28;20078;-80
2023/01/10 13:17:15;;;;;;;17.35;5.65;;;;;;;7.01;95.13;101308.06;5269359;28;20104;-79
2023/01/10 13:20:26;;;;;;;19.27;5.25;;;;;;;7.06;94.31;101310.06;5263112;28;20073;-76
2023/01/10 13:22:59;;;;;;;14.15;4.63;;;;;;;7.05;94.45;101311.13;5263246;28;20041;-74
2023/01/10 13:25:36;;;;;;;15.35;5.90;;;;;;;7.10;94.83;101302.94;5263597;28;20029;-76
2023/01/10 13:28:22;;;;;;;16.45;4.80;;;;;;;7.13;94.21;101305.16;5274714;28;20036;-76
2023/01/10 13:30:56;;;;;;;20.73;6.22;;;;;;;7.14;94.49;101299.41;5282294;28;20020;-73
2023/01/10 13:33:31;;;;;;;24.33;6.57;;;;;;;7.17;94.08;101287.03;5279293;28;20027;-74
2023/01/10 13:36:09;;;;;;;74.47;57.47;;;;;;;7.17;94.39;101285.09;5282112;28;20420;-76
2023/01/10 13:38:55;;;;;;;19.13;5.47;;;;;;;7.18;94.80;101280.41;5284071;28;20017;-76
2023/01/10 13:45:02;;;;;;;21.58;5.88;;;;;;;7.22;94.29;101281.59;5283908;28;20028;-75
2023/01/10 13:47:39;;;;;;;15.13;3.83;;;;;;;7.27;93.78;101287.16;5279815;28;20025;-76
2023/01/10 13:50:22;;;;;;;11.63;4.05;;;;;;;7.28;94.75;101290.75;5280853;28;20028;-75
2023/01/10 13:53:16;;;;;;;17.23;4.85;;;;;;;7.25;96.27;101288.50;5283360;28;20032;-79
2023/01/10 13:55:57;;;;;;;19.05;4.57;;;;;;;7.21;97.14;101277.16;5283031;28;20020;-78
2023/01/10 14:04:28;;;;;;;;;;;;;;;7.27;98.81;101261.50;5282795;28;20048;-75
2023/01/10 14:07:05;;;;;;;15.77;4.85;;;;;;;7.11;99.52;101252.22;5278589;28;20023;-75
2023/01/10 14:09:43;;;;;;;15.55;5.32;;;;;;;7.11;99.82;101257.72;5281329;28;20039;-76
2023/01/10 14:12:23;;;;;;;18.00;5.07;;;;;;;7.09;100.00;101252.47;5281770;28;20105;-75
2023/01/10 14:14:59;;;;;;;19.63;6.15;;;;;;;7.05;100.00;101245.78;5281957;28;20024;-76
2023/01/10 14:17:34;;;;;;;;;;;;;;;7.23;99.78;101238.28;5283590;28;20086;-75
2023/01/10 14:20:09;;;;;;;14.10;4.50;;;;;;;7.07;100.00;101237.25;5280628;28;19920;-75
2023/01/10 14:22:55;;;;;;;14.45;4.20;;;;;;;7.06;100.00;101235.59;5282216;28;20388;-75
2023/01/10 14:25:28;;;;;;;18.90;4.93;;;;;;;6.99;100.00;101227.50;5278806;28;20387;-75
2023/01/10 14:28:00;;;;;;;20.33;8.15;;;;;;;6.98;100.00;101214.81;5282678;28;20032;-76
2023/01/10 14:30:38;;;;;;;13.32;5.32;;;;;;;7.03;100.00;101217.66;5280031;28;20020;-78
2023/01/10 14:33:16;;;;;;;14.93;5.47;;;;;;;7.00;100.00;101209.03;5282291;28;20032;-80
2023/01/10 14:35:56;;;;;;;12.73;5.43;;;;;;;6.96;100.00;101203.22;5282566;28;20024;-74
2023/01/10 14:38:33;;;;;;;11.85;4.20;;;;;;;6.93;100.00;101192.69;5282212;28;20028;-76
2023/01/10 14:41:26;;;;;;;11.65;4.18;;;;;;;6.93;100.00;101190.78;5283029;28;20103;-74
2023/01/10 14:44:01;;;;;;;11.55;4.15;;;;;;;6.91;100.00;101176.41;5268368;28;20037;-72
2023/01/10 14:46:41;;;;;;;;;;;;;;;6.94;100.00;101173.13;5283311;28;20028;-75
2023/01/10 14:49:25;;;;;;;16.63;4.80;;;;;;;6.84;100.00;101158.38;5282771;28;19916;-68
2023/01/10 14:52:33;;;;;;;13.95;4.45;;;;;;;6.99;100.00;101144.78;5283979;28;20012;-74
2023/01/10 14:55:06;;;;;;;13.52;4.70;;;;;;;6.81;100.00;101145.94;5200153;28;20394;-79
2023/01/10 14:57:38;;;;;;;12.43;4.63;;;;;;;6.74;100.00;101142.53;5264676;28;20112;-75
2023/01/10 15:00:15;;;;;;;16.92;8.80;;;;;;;6.70;100.00;101135.91;5262112;28;20539;-75
2023/01/10 15:02:47;;;;;;;10.40;3.80;;;;;;;6.68;100.00;101127.03;5262385;28;20468;-73
2023/01/10 15:05:21;;;;;;;15.20;4.53;;;;;;;6.68;100.00;101132.56;5274813;28;20044;-75
2023/01/10 15:07:54;;;;;;;11.68;4.43;;;;;;;6.70;100.00;101133.16;5282653;28;20502;-77
2023/01/10 15:10:30;;;;;;;10.05;4.07;;;;;;;6.61;100.00;101131.91;5282416;28;20039;-74
2023/01/10 15:13:04;;;;;;;11.30;4.55;;;;;;;6.55;100.00;101121.94;5282096;28;20036;-77
2023/01/10 15:15:38;;;;;;;12.82;4.28;;;;;;;6.57;100.00;101114.22;5269617;28;20032;-78
2023/01/10 15:18:26;;;;;;;13.50;5.63;;;;;;;6.59;100.00;101106.53;5274490;28;20029;-82
2023/01/10 15:21:00;;;;;;;9.18;4.32;;;;;;;6.52;100.00;101099.28;5282328;28;20410;-77
2023/01/10 15:23:40;;;;;;;12.93;4.45;;;;;;;6.55;100.00;101103.47;5281021;28;20050;-72
2023/01/10 15:26:16;;;;;;;11.40;4.45;;;;;;;6.54;100.00;101090.75;5282164;28;20051;-75
2023/01/10 15:29:11;;;;;;;11.15;3.92;;;;;;;6.55;100.00;101099.88;5286719;28;20031;-75
2023/01/10 15:31:43;;;;;;;8.27;3.33;;;;;;;6.48;100.00;101086.28;5281081;28;20159;-80
2023/01/10 15:34:20;;;;;;;22.70;11.57;;;;;;;6.49;100.00;101069.50;5265198;28;20100;-75
2023/01/10 15:36:55;;;;;;;8.73;4.88;;;;;;;6.47;100.00;101073.59;5273393;28;20059;-78
2023/01/10 15:39:33;;;;;;;9.77;4.25;;;;;;;6.44;100.00;101076.84;5284152;28;20024;-76
2023/01/10 15:42:08;;;;;;;10.85;3.47;;;;;;;6.36;100.00;101069.88;5284210;28;20131;-74
2023/01/10 15:44:44;;;;;;;12.50;4.60;;;;;;;6.56;100.00;101069.28;5285682;28;20044;-72
2023/01/10 15:47:38;;;;;;;8.10;3.40;;;;;;;6.38;100.00;101061.38;5285381;28;20021;-74
2023/01/10 15:50:16;;;;;;;11.13;4.05;;;;;;;6.39;100.00;101055.59;5268281;28;20037;-69
2023/01/10 15:52:56;;;;;;;53.50;41.03;;;;;;;6.37;100.00;101048.69;5271420;28;20063;-70
2023/01/10 15:55:35;;;;;;;10.23;3.70;;;;;;;6.34;100.00;101041.78;5285228;28;20017;-77
2023/01/10 15:58:28;;;;;;;18.75;12.00;;;;;;;6.37;100.00;101030.22;5286068;28;20422;-77
2023/01/10 16:01:03;;;;;;;6.45;3.95;;;;;;;6.31;100.00;101018.31;5285100;28;20031;-76
2023/01/10 16:03:37;;;;;;;23.35;19.48;;;;;;;6.32;100.00;101025.50;5285760;28;20027;-76
2023/01/10 16:06:19;;;;;;;6.78;3.20;;;;;;;6.32;100.00;101031.00;5284300;28;20052;-73
2023/01/10 16:08:53;;;;;;;7.75;3.63;;;;;;;6.31;100.00;101017.47;5285024;28;20017;-71
2023/01/10 16:14:26;;;;;;;9.27;4.05;;;;;;;6.26;100.00;101003.63;5283752;28;20480;-74
2023/01/10 16:16:59;;;;;;;8.48;5.95;;;;;;;6.27;100.00;101022.66;5282913;28;20025;-75
2023/01/10 16:19:30;;;;;;;5.75;3.22;;;;;;;6.28;100.00;101004.22;5285361;28;20057;-75
2023/01/10 16:22:02;;;;;;;7.93;4.38;;;;;;;6.26;100.00;101003.63;5284482;28;20051;-75
2023/01/10 16:24:35;;;;;;;7.63;5.60;;;;;;;6.30;100.00;100988.28;5280108;28;20020;-75
2023/01/10 16:27:06;;;;;;;5.13;2.47;;;;;;;6.33;100.00;100998.78;5284568;28;20025;-75
2023/01/10 16:29:37;;;;;;;6.22;2.10;;;;;;;6.24;100.00;100997.56;5284546;28;20043;-74
2023/01/10 16:32:13;;;;;;;5.63;2.65;;;;;;;6.28;100.00;100984.94;5285133;28;20027;-75
